TimeCDT,TemperatureF,Dew PointF,Humidity,Sea Level PressureIn,VisibilityMPH,Wind Direction,Wind SpeedMPH,Gust SpeedMPH,PrecipitationIn,Events,Conditions,WindDirDegrees,DateUTC
12:56 AM,61.0,53.1,75,29.93,10.0,WNW,8.1,-,N/A,,Clear,290,2013-06-17 05:56:00
1:56 AM,60.1,53.1,78,29.92,10.0,West,10.4,-,N/A,,Clear,280,2013-06-17 06:56:00
2:56 AM,60.1,53.1,78,29.93,10.0,West,9.2,-,N/A,,Clear,270,2013-06-17 07:56:00
3:56 AM,59.0,54.0,83,29.93,10.0,WNW,9.2,-,N/A,,Clear,290,2013-06-17 08:56:00
4:56 AM,57.9,55.0,90,29.92,10.0,WNW,11.5,-,N/A,,Clear,300,2013-06-17 09:56:00
5:29 AM,59.0,55.4,88,29.95,10.0,WNW,8.1,-,N/A,,Mostly Cloudy,290,2013-06-17 10:29:00
5:47 AM,60.8,57.2,88,29.95,10.0,NW,11.5,-,N/A,,Overcast,310,2013-06-17 10:47:00
5:56 AM,59.0,57.0,93,29.94,10.0,NW,10.4,-,N/A,,Overcast,310,2013-06-17 10:56:00
6:04 AM,59.0,55.4,88,29.96,10.0,NW,10.4,-,N/A,,Mostly Cloudy,310,2013-06-17 11:04:00
6:10 AM,59.0,55.4,88,29.96,10.0,WNW,9.2,-,N/A,,Scattered Clouds,300,2013-06-17 11:10:00
6:56 AM,59.0,57.0,93,29.96,10.0,NW,12.7,-,N/A,,Clear,310,2013-06-17 11:56:00
7:08 AM,59.0,57.2,94,29.98,10.0,NW,12.7,-,N/A,,Scattered Clouds,310,2013-06-17 12:08:00
7:20 AM,59.0,57.2,94,29.98,10.0,NW,13.8,-,N/A,,Mostly Cloudy,320,2013-06-17 12:20:00
7:56 AM,60.1,57.0,90,29.99,10.0,NNW,17.3,-,N/A,,Overcast,340,2013-06-17 12:56:00
8:20 AM,60.8,57.2,88,30.00,10.0,NNW,13.8,-,N/A,,Overcast,340,2013-06-17 13:20:00
8:37 AM,62.6,57.2,82,30.01,10.0,NNW,15.0,-,N/A,,Overcast,340,2013-06-17 13:37:00
8:56 AM,63.0,57.0,81,30.00,10.0,NNW,16.1,-,N/A,,Mostly Cloudy,340,2013-06-17 13:56:00
9:05 AM,64.4,57.2,77,30.01,10.0,NNW,15.0,21.9,N/A,,Mostly Cloudy,340,2013-06-17 14:05:00
9:37 AM,64.4,55.4,73,30.02,10.0,North,15.0,-,N/A,,Scattered Clouds,350,2013-06-17 14:37:00
9:56 AM,64.0,57.0,78,30.02,10.0,NNW,13.8,-,N/A,,Mostly Cloudy,330,2013-06-17 14:56:00
10:56 AM,64.9,57.0,75,30.04,10.0,NNW,15.0,-,N/A,,Overcast,330,2013-06-17 15:56:00
11:56 AM,64.9,55.9,73,30.06,10.0,NNW,11.5,21.9,N/A,,Overcast,330,2013-06-17 16:56:00
12:56 PM,66.9,55.9,68,30.06,10.0,NW,15.0,-,N/A,,Mostly Cloudy,320,2013-06-17 17:56:00
1:56 PM,68.0,55.0,63,30.05,10.0,NNW,12.7,-,N/A,,Mostly Cloudy,330,2013-06-17 18:56:00
2:56 PM,72.0,55.0,55,30.03,10.0,NNW,12.7,-,N/A,,Clear,330,2013-06-17 19:56:00
3:56 PM,73.9,55.0,52,30.02,10.0,NNW,11.5,-,N/A,,Mostly Cloudy,340,2013-06-17 20:56:00
4:56 PM,72.0,53.1,51,30.03,10.0,North,11.5,-,N/A,,Scattered Clouds,360,2013-06-17 21:56:00
5:56 PM,72.0,53.1,51,30.02,10.0,NE,16.1,-,N/A,,Scattered Clouds,40,2013-06-17 22:56:00
6:56 PM,70.0,51.1,51,30.03,10.0,NNE,12.7,-,N/A,,Mostly Cloudy,30,2013-06-17 23:56:00
7:51 PM,69.8,51.8,53,30.03,10.0,NNE,8.1,-,0.00,Thunderstorm,Mostly Cloudy,20,2013-06-18 00:51:00
7:56 PM,69.1,51.1,53,30.03,10.0,NNE,9.2,-,0.00,Thunderstorm,Mostly Cloudy,30,2013-06-18 00:56:00
8:06 PM,66.2,53.6,64,30.04,10.0,NNE,11.5,-,N/A,,Mostly Cloudy,20,2013-06-18 01:06:00
8:56 PM,64.0,55.9,75,30.05,10.0,North,9.2,-,0.00,Rain,Light Rain,350,2013-06-18 01:56:00
9:56 PM,60.1,57.0,90,30.06,10.0,NW,3.5,-,0.00,,Scattered Clouds,310,2013-06-18 02:56:00
10:56 PM,57.9,55.0,90,30.07,10.0,NNW,3.5,-,N/A,,Partly Cloudy,340,2013-06-18 03:56:00
11:56 PM,55.0,53.1,93,30.08,9.0,Calm,Calm,-,N/A,,Clear,0,2013-06-18 04:56:00